Time;durP1;ratioP1;P1;durP2;ratioP2;P2;SDS_P1;SDS_P2;PMS_P1;PMS_P2;Temp;Humidity;BMP_temperature;BMP_pressure;BME280_temperature;BME280_humidity;BME280_pressure;Samples;Min_cycle;Max_cycle;Signal;HPM_P1;HPM_P2
2022/05/29 00:02:01;;;;;;;1.80;0.90;;;;;;;20.92;40.91;101775.31;5052243;28;20476;-61
2022/05/29 00:04:26;;;;;;;1.95;0.70;;;;;;;20.91;40.97;101776.25;5052860;28;20082;-61
2022/05/29 00:06:55;;;;;;;3.33;0.80;;;;;;;20.90;40.99;101769.25;5052919;28;20029;-62
2022/05/29 00:09:35;;;;;;;1.67;0.70;;;;;;;20.90;40.70;101765.78;5052388;28;20033;-60
2022/05/29 00:12:02;;;;;;;1.58;0.70;;;;;;;20.89;40.79;101772.06;5053009;28;20041;-60
2022/05/29 00:14:32;;;;;;;2.47;0.80;;;;;;;20.88;40.63;101765.91;5052813;28;20028;-62
2022/05/29 00:17:00;;;;;;;3.58;1.00;;;;;;;20.88;40.75;101767.72;5051530;28;20057;-61
2022/05/29 00:19:25;;;;;;;4.35;1.10;;;;;;;20.87;40.48;101760.72;5052975;28;20025;-61
2022/05/29 00:21:51;;;;;;;3.00;0.88;;;;;;;20.86;40.61;101762.53;5052610;28;20025;-60
2022/05/29 00:24:16;;;;;;;3.17;0.98;;;;;;;20.86;40.65;101767.84;5052090;28;20108;-61
2022/05/29 00:26:44;;;;;;;2.17;0.80;;;;;;;20.84;40.42;101757.34;5053040;28;20068;-61
2022/05/29 00:29:09;;;;;;;3.75;1.02;;;;;;;20.84;40.74;101753.88;5052714;28;20336;-62
2022/05/29 00:31:35;;;;;;;2.90;0.82;;;;;;;20.83;40.52;101760.13;5052090;28;20024;-62
2022/05/29 00:34:01;;;;;;;2.78;0.90;;;;;;;20.83;40.61;101752.19;5052514;28;20030;-61
2022/05/29 00:36:31;;;;;;;3.88;1.08;;;;;;;20.82;40.55;101751.34;5052080;28;20131;-62
2022/05/29 00:38:56;;;;;;;3.03;1.10;;;;;;;20.81;40.37;101747.00;5051814;28;20427;-61
2022/05/29 00:41:31;;;;;;;2.28;0.80;;;;;;;20.80;40.54;101747.13;5052778;28;20029;-62
2022/05/29 00:44:21;;;;;;;3.50;1.10;;;;;;;20.80;40.57;101744.47;5052257;28;20492;-63
2022/05/29 00:46:46;;;;;;;2.88;0.90;;;;;;;20.78;40.25;101743.75;5052610;28;20040;-61
2022/05/29 00:49:12;;;;;;;2.73;1.00;;;;;;;20.77;40.57;101734.13;5052523;28;20481;-61
2022/05/29 00:51:43;;;;;;;1.83;0.80;;;;;;;20.77;40.47;101739.41;5052001;28;20021;-60
2022/05/29 00:54:09;;;;;;;2.53;0.90;;;;;;;20.76;40.33;101727.97;5051752;28;20280;-61
2022/05/29 00:56:37;;;;;;;2.53;0.98;;;;;;;20.76;40.43;101729.78;5052752;28;20054;-61
2022/05/29 00:59:09;;;;;;;3.08;1.10;;;;;;;20.74;40.48;101729.88;5055741;28;20037;-62
2022/05/29 01:01:35;;;;;;;2.58;1.00;;;;;;;20.74;40.32;101718.47;5056894;28;20028;-61
2022/05/29 01:04:00;;;;;;;3.50;1.27;;;;;;;20.74;40.30;101729.06;5056427;28;20373;-61
2022/05/29 01:06:28;;;;;;;2.85;0.80;;;;;;;20.73;40.41;101720.28;5055910;28;20483;-61
2022/05/29 01:08:54;;;;;;;2.45;0.98;;;;;;;20.72;40.71;101726.53;5056580;28;20487;-61
2022/05/29 01:11:59;;;;;;;2.80;1.00;;;;;;;20.71;40.60;101711.63;5056575;28;20210;-61
2022/05/29 01:14:43;;;;;;;3.42;1.00;;;;;;;20.71;40.69;101722.22;5055624;28;20476;-61
2022/05/29 01:17:26;;;;;;;2.58;1.00;;;;;;;20.70;40.58;101712.56;5056280;28;20619;-61
2022/05/29 01:20:30;;;;;;;2.42;1.00;;;;;;;20.69;40.55;101713.53;5055386;28;20120;-62
2022/05/29 01:23:29;;;;;;;2.80;1.10;;;;;;;20.69;40.69;101708.22;5056298;28;20047;-61
2022/05/29 01:26:14;;;;;;;3.33;1.02;;;;;;;20.69;40.73;101710.03;5056201;28;20029;-62
2022/05/29 01:28:53;;;;;;;3.08;0.93;;;;;;;20.68;40.64;101709.22;5055899;28;20101;-61
2022/05/29 01:31:30;;;;;;;3.22;1.10;;;;;;;20.67;40.54;101701.38;5056086;28;20433;-61
2022/05/29 01:34:21;;;;;;;2.75;1.00;;;;;;;20.66;40.81;101703.16;5055075;28;20159;-60
2022/05/29 01:37:00;;;;;;;3.88;1.20;;;;;;;20.66;40.58;101697.88;5056064;28;20424;-61
2022/05/29 01:39:48;;;;;;;2.78;0.88;;;;;;;20.65;40.35;101697.03;5056167;28;20028;-61
2022/05/29 01:42:42;;;;;;;4.47;1.20;;;;;;;20.64;40.68;101695.34;5055261;28;20021;-61
2022/05/29 01:45:34;;;;;;;2.92;1.10;;;;;;;20.63;40.65;101690.13;5055672;28;20025;-60
2022/05/29 01:48:14;;;;;;;4.53;1.52;;;;;;;20.63;40.59;101698.06;5054773;28;20476;-61
2022/05/29 01:50:54;;;;;;;2.53;0.95;;;;;;;20.62;40.64;101693.75;5055862;28;20059;-61
2022/05/29 01:53:28;;;;;;;2.63;1.08;;;;;;;20.61;40.61;101684.97;5055790;28;20104;-61
2022/05/29 01:55:59;;;;;;;3.20;1.13;;;;;;;20.61;40.66;101686.78;5054884;28;20025;-62
2022/05/29 01:58:35;;;;;;;3.28;1.20;;;;;;;20.60;40.59;101683.28;5055713;28;20029;-61
2022/05/29 02:01:03;;;;;;;2.47;1.15;;;;;;;20.59;40.48;101683.41;5055305;28;20029;-61
2022/05/29 02:03:33;;;;;;;3.95;1.38;;;;;;;20.59;40.33;101680.75;5054784;28;20025;-61
2022/05/29 02:06:05;;;;;;;3.75;1.33;;;;;;;20.58;40.21;101677.25;5055016;28;20056;-60
2022/05/29 02:08:41;;;;;;;2.33;1.00;;;;;;;20.58;40.60;101671.94;5054949;28;20017;-61
2022/05/29 02:11:12;;;;;;;3.85;1.20;;;;;;;20.57;40.38;101672.06;5055212;28;20029;-61
2022/05/29 02:13:45;;;;;;;3.33;1.10;;;;;;;20.57;40.17;101672.06;5055479;28;20025;-61
2022/05/29 02:16:34;;;;;;;3.47;1.17;;;;;;;20.57;40.38;101669.44;5054103;28;20049;-61
2022/05/29 02:19:19;;;;;;;3.78;1.15;;;;;;;20.56;40.48;101675.69;5055045;28;20128;-61
2022/05/29 02:22:31;;;;;;;2.95;1.17;;;;;;;20.55;40.40;101677.50;5055364;28;20025;-62
2022/05/29 02:25:12;;;;;;;2.90;0.95;;;;;;;20.54;40.51;101673.19;5053706;28;20033;-61
2022/05/29 02:27:54;;;;;;;2.80;1.00;;;;;;;20.53;40.49;101663.53;5055226;28;20033;-61
2022/05/29 02:30:24;;;;;;;2.85;1.10;;;;;;;20.53;40.41;101660.06;5054278;28;20036;-60
2022/05/29 02:32:52;;;;;;;3.65;1.23;;;;;;;20.53;40.48;101660.06;5054810;28;20020;-62
2022/05/29 02:35:41;;;;;;;2.55;1.00;;;;;;;20.53;40.28;101660.88;5055216;28;20126;-61
2022/05/29 02:38:21;;;;;;;2.55;0.98;;;;;;;20.50;40.12;101652.34;5053969;28;20031;-61
2022/05/29 02:41:11;;;;;;;3.17;1.27;;;;;;;20.51;40.13;101657.53;5055022;28;20028;-61
2022/05/29 02:43:44;;;;;;;4.95;1.02;;;;;;;20.50;40.17;101661.13;5055008;28;20116;-62
2022/05/29 02:46:26;;;;;;;2.85;1.10;;;;;;;20.49;40.38;101656.81;5054623;28;20406;-61
2022/05/29 02:48:58;;;;;;;2.97;0.98;;;;;;;20.48;40.30;101657.75;5054519;28;20086;-61
2022/05/29 02:51:31;;;;;;;2.97;1.10;;;;;;;20.47;40.11;101650.78;5053921;28;20021;-61
2022/05/29 02:53:57;;;;;;;3.65;1.20;;;;;;;20.47;40.17;101653.41;5054296;28;20048;-61
2022/05/29 02:56:22;;;;;;;2.28;0.90;;;;;;;20.45;40.27;101648.25;5054506;28;20061;-62
2022/05/29 02:58:52;;;;;;;2.20;0.75;;;;;;;20.46;40.21;101644.66;5053842;28;20021;-61
2022/05/29 03:01:39;;;;;;;2.95;1.00;;;;;;;20.46;40.18;101646.47;5054660;28;20021;-61
2022/05/29 03:04:31;;;;;;;2.47;1.02;;;;;;;20.45;40.38;101632.34;5054077;28;20425;-60
2022/05/29 03:07:23;;;;;;;3.53;1.10;;;;;;;20.44;40.02;101643.06;5053492;28;20075;-61
2022/05/29 03:10:07;;;;;;;2.75;1.10;;;;;;;20.43;40.02;101641.41;5054375;28;20100;-60
2022/05/29 03:13:08;;;;;;;3.40;1.10;;;;;;;20.42;40.09;101648.50;5053548;28;20116;-62
2022/05/29 03:15:44;;;;;;;3.80;1.00;;;;;;;20.42;40.08;101643.19;5053973;28;20497;-61
2022/05/29 03:18:27;;;;;;;2.90;1.00;;;;;;;20.42;40.21;101642.34;5053895;28;20388;-61
2022/05/29 03:21:11;;;;;;;3.45;1.00;;;;;;;20.41;40.18;101640.66;5052450;28;20131;-61
2022/05/29 03:23:52;;;;;;;4.10;1.40;;;;;;;20.40;40.03;101634.53;5054059;28;20475;-61
2022/05/29 03:26:26;;;;;;;4.18;1.20;;;;;;;20.40;40.39;101633.69;5052942;28;20393;-61
2022/05/29 03:29:12;;;;;;;;;;;;;;;20.40;40.19;101631.06;5054197;28;20021;-61
2022/05/29 03:31:43;;;;;;;2.80;1.00;;;;;;;20.38;40.02;101631.19;5054141;28;19913;-61
2022/05/29 03:34:09;;;;;;;3.95;1.30;;;;;;;20.39;40.10;101634.66;5053047;28;20032;-61
2022/05/29 03:36:35;;;;;;;3.97;1.13;;;;;;;20.38;40.00;101628.53;5053847;28;20389;-61
2022/05/29 03:39:00;;;;;;;3.50;1.17;;;;;;;20.37;40.22;101624.19;5053344;28;20029;-62
2022/05/29 03:41:55;;;;;;;3.88;1.25;;;;;;;20.36;40.03;101621.66;5052903;28;20024;-61
2022/05/29 03:44:23;;;;;;;2.08;1.23;;;;;;;20.37;40.10;101626.00;5048947;28;20033;-61
2022/05/29 03:46:49;;;;;;;3.22;1.00;;;;;;;20.36;40.29;101616.38;5053522;28;20104;-60
2022/05/29 03:49:19;;;;;;;2.92;1.20;;;;;;;20.36;40.17;101613.72;5052960;28;20121;-63
2022/05/29 03:51:44;;;;;;;3.13;1.00;;;;;;;20.33;40.33;101612.16;5053511;28;20111;-61
2022/05/29 03:54:10;;;;;;;2.17;0.95;;;;;;;20.34;40.29;101613.00;5052392;28;20049;-61
2022/05/29 03:56:36;;;;;;;1.83;1.10;;;;;;;20.35;40.28;101612.06;5053340;28;20021;-62
2022/05/29 03:59:02;;;;;;;5.28;1.30;;;;;;;20.33;40.25;101609.53;5052984;28;20492;-61
2022/05/29 04:01:27;;;;;;;2.97;1.10;;;;;;;20.34;40.19;101607.72;5052671;28;20060;-61
2022/05/29 04:03:55;;;;;;;3.70;1.10;;;;;;;20.34;40.22;101607.72;5053012;28;20362;-61
2022/05/29 04:06:26;;;;;;;2.03;0.90;;;;;;;20.33;40.20;101596.28;5053173;28;20104;-61
2022/05/29 04:14:23;;;;;;;1.65;0.80;;;;;;;20.32;40.41;101607.00;5053376;28;20508;-61
2022/05/29 04:16:49;;;;;;;3.75;1.13;;;;;;;20.31;40.17;101600.84;5051749;28;20076;-61
2022/05/29 04:19:14;;;;;;;3.05;1.05;;;;;;;20.31;40.15;101600.84;5052853;28;20056;-61
2022/05/29 04:21:40;;;;;;;2.25;1.15;;;;;;;20.31;40.48;101603.50;5053115;28;20029;-60
2022/05/29 04:24:06;;;;;;;3.20;1.15;;;;;;;20.32;40.32;101597.25;5051863;28;20029;-61
2022/05/29 04:26:34;;;;;;;3.28;0.85;;;;;;;20.30;40.15;101594.72;5052988;28;20033;-61
2022/05/29 04:29:01;;;;;;;4.18;1.20;;;;;;;20.31;40.26;101595.53;5052641;28;20056;-63
2022/05/29 04:31:26;;;;;;;3.70;1.17;;;;;;;20.30;40.47;101596.53;5051281;28;20048;-62
2022/05/29 04:33:52;;;;;;;2.28;0.82;;;;;;;20.30;40.39;101594.72;5052427;28;20025;-62
2022/05/29 04:36:17;;;;;;;3.72;0.98;;;;;;;20.30;40.47;101605.31;5052127;28;20479;-61
2022/05/29 04:38:43;;;;;;;2.65;1.00;;;;;;;20.30;40.15;101605.31;5052878;28;20534;-61
2022/05/29 04:41:09;;;;;;;3.85;1.02;;;;;;;20.30;40.46;101607.13;5052499;28;20436;-61
2022/05/29 04:43:35;;;;;;;2.28;0.77;;;;;;;20.30;40.43;101607.13;5051986;28;20024;-61
2022/05/29 04:46:01;;;;;;;3.08;1.10;;;;;;;20.30;40.71;101610.59;5052442;28;20048;-61
2022/05/29 04:48:26;;;;;;;4.97;1.30;;;;;;;20.29;40.56;101614.19;5052567;28;20469;-61
2022/05/29 04:51:05;;;;;;;2.75;1.00;;;;;;;20.31;40.56;101608.78;5051747;28;20024;-61
2022/05/29 04:53:33;;;;;;;2.67;0.90;;;;;;;20.30;40.82;101617.72;5052735;28;20083;-61
2022/05/29 04:55:59;;;;;;;3.60;1.38;;;;;;;20.29;40.73;101611.53;5052160;28;20017;-61
2022/05/29 04:58:27;;;;;;;2.42;0.85;;;;;;;20.29;41.04;101611.53;5051518;28;20167;-61
2022/05/29 05:00:57;;;;;;;4.45;1.20;;;;;;;20.30;41.17;101609.75;5052099;28;20075;-61
2022/05/29 05:03:23;;;;;;;2.83;1.17;;;;;;;20.30;41.24;101605.31;5052758;28;20353;-61
2022/05/29 05:05:48;;;;;;;1.83;0.80;;;;;;;20.31;41.09;101603.50;5051642;28;20028;-61
2022/05/29 05:08:13;;;;;;;2.53;0.80;;;;;;;20.30;41.24;101599.19;5052718;28;20028;-62
2022/05/29 05:10:41;;;;;;;3.25;1.33;;;;;;;20.29;41.05;101595.66;5052725;28;20029;-62
2022/05/29 05:13:08;;;;;;;3.47;1.00;;;;;;;20.29;41.21;101595.66;5051862;28;20040;-61
2022/05/29 05:15:33;;;;;;;3.45;0.90;;;;;;;20.29;41.28;101590.38;5052982;28;20076;-61
2022/05/29 05:18:01;;;;;;;3.20;1.13;;;;;;;20.27;41.15;101589.66;5052089;28;20076;-61
2022/05/29 05:20:26;;;;;;;2.53;0.95;;;;;;;20.30;41.29;101591.22;5051574;28;20055;-62
2022/05/29 05:22:52;;;;;;;2.28;0.90;;;;;;;20.29;41.52;101597.47;5052024;28;20029;-61
2022/05/29 05:25:17;;;;;;;3.05;1.15;;;;;;;20.29;41.49;101593.03;5052254;28;20025;-61
2022/05/29 05:27:43;;;;;;;4.88;1.00;;;;;;;20.29;41.58;101593.03;5051403;28;20410;-61
2022/05/29 05:30:12;;;;;;;3.95;1.10;;;;;;;20.29;41.54;101593.03;5051999;28;20040;-61
2022/05/29 05:32:37;;;;;;;2.42;1.00;;;;;;;20.29;41.47;101587.72;5051536;28;20021;-61
2022/05/29 05:35:09;;;;;;;3.50;1.03;;;;;;;20.29;41.67;101584.25;5052003;28;20090;-61
2022/05/29 05:37:36;;;;;;;1.52;0.75;;;;;;;20.30;41.56;101588.59;5052082;28;20294;-60
2022/05/29 05:40:05;;;;;;;3.22;0.98;;;;;;;20.28;41.72;101594.00;5051069;28;20376;-60
2022/05/29 05:42:31;;;;;;;3.75;1.05;;;;;;;20.30;41.74;101591.22;5051876;28;20017;-61
2022/05/29 05:44:56;;;;;;;2.25;0.85;;;;;;;20.28;41.66;101593.13;5055728;28;20083;-61
2022/05/29 05:47:22;;;;;;;3.80;1.17;;;;;;;20.28;41.57;101591.34;5055139;28;20457;-60
2022/05/29 05:49:50;;;;;;;1.65;0.80;;;;;;;20.29;41.60;101590.38;5055921;28;20029;-61
2022/05/29 05:52:17;;;;;;;2.58;1.00;;;;;;;20.29;41.58;101589.53;5055653;28;20449;-60
2022/05/29 05:54:43;;;;;;;2.92;1.15;;;;;;;20.29;41.89;101586.91;5054812;28;20479;-61
2022/05/29 05:57:11;;;;;;;3.08;1.00;;;;;;;20.28;41.70;101579.91;5055221;28;20048;-61
2022/05/29 05:59:39;;;;;;;3.13;1.20;;;;;;;20.29;41.90;101589.53;5055472;28;20032;-61
2022/05/29 06:02:09;;;;;;;3.65;1.30;;;;;;;20.29;41.97;101581.59;5054562;28;20025;-61
2022/05/29 06:04:36;;;;;;;4.20;1.30;;;;;;;20.29;41.85;101582.44;5055527;28;20107;-61
2022/05/29 06:07:01;;;;;;;2.50;0.90;;;;;;;20.31;41.87;101579.66;5055276;28;20025;-61
2022/05/29 06:09:27;;;;;;;22.13;1.38;;;;;;;20.36;41.97;101584.59;5054596;28;20028;-62
2022/05/29 06:11:52;;;;;;;4.07;1.20;;;;;;;20.37;42.18;101587.13;5054827;28;20052;-61
2022/05/29 06:14:17;;;;;;;2.97;1.07;;;;;;;20.38;41.99;101578.22;5055415;28;20036;-62
2022/05/29 06:16:43;;;;;;;2.43;1.10;;;;;;;20.39;42.31;101585.19;5054032;28;20332;-62
2022/05/29 06:19:08;;;;;;;2.85;1.20;;;;;;;20.41;42.38;101579.78;5055466;28;20024;-62
2022/05/29 06:21:34;;;;;;;2.30;0.85;;;;;;;20.39;42.37;101576.41;5056133;28;20033;-62
2022/05/29 06:24:05;;;;;;;2.63;1.02;;;;;;;20.38;42.74;101580.03;5054588;28;20047;-62
2022/05/29 06:26:31;;;;;;;2.63;1.00;;;;;;;20.38;42.63;101583.53;5055396;28;20049;-62
2022/05/29 06:28:56;;;;;;;2.72;1.00;;;;;;;20.41;42.58;101579.78;5054220;28;20033;-61
2022/05/29 06:31:21;;;;;;;2.13;0.83;;;;;;;20.43;42.91;101584.00;5055381;28;20047;-61
2022/05/29 06:33:50;;;;;;;3.15;1.10;;;;;;;20.46;42.61;101583.75;5055814;28;20333;-61
2022/05/29 06:36:18;;;;;;;3.40;0.90;;;;;;;20.50;42.59;101584.34;5055820;28;20025;-60
2022/05/29 06:38:45;;;;;;;4.30;1.00;;;;;;;20.53;42.48;101583.25;5056343;28;20492;-60
2022/05/29 06:41:12;;;;;;;1.88;0.90;;;;;;;20.56;42.43;101583.03;5056590;28;20033;-64
2022/05/29 06:43:37;;;;;;;3.40;0.90;;;;;;;20.59;42.73;101578.31;5055873;28;20063;-64
2022/05/29 06:46:04;;;;;;;3.00;0.90;;;;;;;20.63;42.61;101584.19;5055678;28;20021;-62
2022/05/29 06:48:35;;;;;;;3.05;1.00;;;;;;;20.68;42.78;101587.38;5056076;28;20024;-63
2022/05/29 06:51:12;;;;;;;2.65;1.00;;;;;;;20.72;42.60;101582.66;5054922;28;20388;-62
2022/05/29 06:53:38;;;;;;;3.30;1.00;;;;;;;20.72;42.52;101587.97;5054827;28;20024;-62
2022/05/29 06:56:05;;;;;;;5.78;1.10;;;;;;;20.72;42.49;101591.44;5053063;28;20029;-61
2022/05/29 06:58:30;;;;;;;3.80;0.93;;;;;;;20.76;42.87;101590.25;5053813;28;20033;-60
2022/05/29 07:09:17;;;;;;;2.50;0.77;;;;;;;20.90;42.76;101583.78;5054562;28;20080;-63
2022/05/29 07:11:44;;;;;;;3.33;1.10;;;;;;;20.92;42.69;101579.25;5053691;28;20385;-62
2022/05/29 07:14:10;;;;;;;3.25;1.00;;;;;;;20.93;42.90;101578.25;5054051;28;20032;-61
2022/05/29 07:16:37;;;;;;;4.93;1.05;;;;;;;20.94;43.02;101572.00;5053872;28;20045;-61
2022/05/29 07:19:04;;;;;;;4.93;1.23;;;;;;;20.96;42.92;101575.34;5052788;28;20040;-61
2022/05/29 07:21:33;;;;;;;2.20;0.88;;;;;;;20.98;43.11;101578.75;5054113;28;20050;-63
2022/05/29 07:23:58;;;;;;;3.95;1.27;;;;;;;20.97;43.14;101563.78;5053669;28;20068;-59
2022/05/29 07:26:23;;;;;;;4.22;0.90;;;;;;;20.94;43.18;101573.81;5053168;28;20477;-59
2022/05/29 07:28:49;;;;;;;4.60;1.00;;;;;;;20.91;43.12;101564.28;5053512;28;20037;-62
2022/05/29 07:31:14;;;;;;;4.22;1.10;;;;;;;20.91;43.56;101569.59;5054007;28;20481;-60
2022/05/29 07:33:39;;;;;;;5.17;1.40;;;;;;;20.90;43.77;101567.91;5053253;28;20119;-59
2022/05/29 07:36:09;;;;;;;4.47;1.33;;;;;;;20.90;43.57;101561.78;5053607;28;20122;-58
2022/05/29 07:38:35;;;;;;;3.25;0.95;;;;;;;20.89;43.81;101568.06;5053711;28;20384;-59
2022/05/29 07:41:00;;;;;;;6.53;1.13;;;;;;;20.89;43.71;101554.81;5052028;28;20028;-58
2022/05/29 07:43:26;;;;;;;6.30;1.17;;;;;;;20.86;43.54;101563.84;5053510;28;20388;-60
2022/05/29 07:45:54;;;;;;;4.90;1.10;;;;;;;20.81;43.69;101566.03;5053450;28;20285;-59
2022/05/29 07:48:26;;;;;;;7.50;1.20;;;;;;;20.77;43.92;101567.22;5052761;28;20021;-57
2022/05/29 07:50:52;;;;;;;7.72;2.55;;;;;;;20.75;43.71;101567.34;5053280;28;20389;-57
2022/05/29 07:53:18;;;;;;;5.30;1.10;;;;;;;20.74;44.04;101560.38;5052629;28;20017;-58
2022/05/29 07:55:44;;;;;;;4.43;1.10;;;;;;;20.74;44.27;101557.72;5053306;28;20027;-59
2022/05/29 07:58:11;;;;;;;6.47;1.27;;;;;;;20.75;44.32;101561.22;5052955;28;20048;-57
2022/05/29 08:00:36;;;;;;;4.32;0.88;;;;;;;20.76;44.94;101557.59;5052489;28;20027;-60
2022/05/29 08:03:03;;;;;;;4.75;1.00;;;;;;;20.74;45.12;101554.22;5053178;28;20415;-59
2022/05/29 08:05:31;;;;;;;6.47;1.30;;;;;;;20.74;44.86;101555.06;5053428;28;20035;-61
2022/05/29 08:07:57;;;;;;;5.68;1.33;;;;;;;20.72;44.86;101557.00;5052625;28;20163;-61
2022/05/29 08:10:23;;;;;;;3.78;1.35;;;;;;;20.72;44.61;101558.81;5053447;28;20021;-60
2022/05/29 08:12:49;;;;;;;5.03;1.42;;;;;;;20.73;44.61;101561.34;5053061;28;20021;-60
2022/05/29 08:15:14;;;;;;;4.57;1.10;;;;;;;20.74;45.06;101562.19;5052477;28;20427;-62
2022/05/29 08:17:40;;;;;;;3.25;1.02;;;;;;;20.75;44.74;101558.56;5053139;28;20084;-61
2022/05/29 08:20:07;;;;;;;4.68;1.15;;;;;;;20.76;44.59;101554.94;5052836;28;20024;-60
2022/05/29 08:22:32;;;;;;;5.90;1.27;;;;;;;20.76;44.47;101553.16;5052087;28;20025;-61
2022/05/29 08:30:51;;;;;;;7.13;1.48;;;;;;;20.74;44.39;101547.13;5052506;28;20083;-62
2022/05/29 08:33:20;;;;;;;5.47;1.25;;;;;;;20.74;44.32;101544.47;5052931;28;20081;-60
2022/05/29 08:35:47;;;;;;;4.70;1.08;;;;;;;20.76;44.31;101537.25;5051926;28;20358;-60
2022/05/29 08:38:14;;;;;;;4.57;1.05;;;;;;;20.75;44.31;101535.56;5052680;28;20115;-67
2022/05/29 08:40:48;;;;;;;4.15;1.10;;;;;;;20.77;44.87;101535.44;5052622;28;20029;-63
2022/05/29 08:43:23;;;;;;;4.07;1.00;;;;;;;20.77;44.47;101532.78;5051986;28;20032;-64
2022/05/29 08:45:50;;;;;;;2.72;0.90;;;;;;;20.78;44.64;101531.84;5052244;28;20100;-64
2022/05/29 08:48:19;;;;;;;3.30;0.98;;;;;;;20.77;44.61;101530.97;5052880;28;20118;-61
2022/05/29 08:51:03;;;;;;;5.35;1.10;;;;;;;20.78;44.74;101531.84;5052078;28;20064;-62
2022/05/29 08:53:41;;;;;;;;;;;;;;;20.79;45.02;101528.22;5053128;28;20074;-63
2022/05/29 08:56:22;;;;;;;2.92;0.88;;;;;;;20.78;44.97;101529.19;5052537;28;20302;-64
2022/05/29 08:59:20;;;;;;;2.78;0.95;;;;;;;20.78;45.49;101527.38;5051825;28;20546;-63
2022/05/29 09:01:56;;;;;;;8.48;1.67;;;;;;;20.79;45.56;101528.22;5052670;28;20033;-63
2022/05/29 09:04:35;;;;;;;3.78;1.45;;;;;;;20.81;45.50;101534.25;5051753;28;20028;-61
2022/05/29 09:07:05;;;;;;;5.43;1.40;;;;;;;20.77;45.10;101522.19;5052490;28;20112;-63
2022/05/29 09:09:40;;;;;;;2.58;0.90;;;;;;;20.76;45.04;101523.16;5052534;28;20107;-59
2022/05/29 09:12:12;;;;;;;6.50;1.20;;;;;;;20.75;45.46;101522.31;5051633;28;20021;-63
2022/05/29 09:14:47;;;;;;;3.85;1.00;;;;;;;20.76;45.58;101524.03;5052437;28;20472;-59
2022/05/29 09:17:23;;;;;;;4.82;1.38;;;;;;;20.77;46.20;101516.91;5051882;28;20049;-60
2022/05/29 09:19:58;;;;;;;5.70;1.52;;;;;;;20.76;46.15;101516.06;5055467;28;20029;-60
2022/05/29 09:22:29;;;;;;;5.95;1.23;;;;;;;20.76;46.28;101510.78;5056464;28;20075;-60
2022/05/29 09:25:28;;;;;;;4.03;1.17;;;;;;;20.77;45.53;101516.91;5055346;28;20331;-61
2022/05/29 09:27:54;;;;;;;6.80;1.20;;;;;;;20.77;45.87;101515.09;5056152;28;20068;-59
2022/05/29 09:30:19;;;;;;;3.67;1.13;;;;;;;20.79;46.32;101505.22;5056428;28;20060;-59
2022/05/29 09:32:55;;;;;;;7.55;1.30;;;;;;;20.80;45.76;101500.75;5055450;28;20021;-59
2022/05/29 09:35:41;;;;;;;4.13;1.20;;;;;;;20.80;45.93;101498.94;5056195;28;20059;-60
2022/05/29 09:38:34;;;;;;;3.47;1.23;;;;;;;20.82;45.75;101504.13;5055767;28;20037;-60
2022/05/29 09:41:16;;;;;;;2.85;1.10;;;;;;;20.81;45.61;101502.44;5052491;28;20060;-60
2022/05/29 09:44:04;;;;;;;4.45;1.10;;;;;;;20.81;45.72;101499.81;5056284;28;20025;-60
2022/05/29 09:46:35;;;;;;;2.85;1.00;;;;;;;20.81;45.95;101502.44;5055301;28;20053;-60
2022/05/29 09:52:04;;;;;;;4.35;1.00;;;;;;;20.80;45.49;101491.00;5057064;28;20023;-60
2022/05/29 09:54:34;;;;;;;3.92;1.00;;;;;;;20.79;46.01;101491.13;5056319;28;20025;-60
2022/05/29 09:57:30;;;;;;;3.22;0.93;;;;;;;20.80;46.19;101483.03;5057116;28;20025;-58
2022/05/29 10:00:06;;;;;;;3.25;0.93;;;;;;;20.81;45.81;101476.78;5051026;28;20128;-59
2022/05/29 10:02:40;;;;;;;6.28;1.30;;;;;;;20.82;45.65;101473.19;5056119;28;20025;-59
2022/05/29 10:05:09;;;;;;;2.28;0.80;;;;;;;20.82;45.61;101475.84;5055459;28;20050;-58
2022/05/29 10:07:44;;;;;;;4.05;1.13;;;;;;;20.83;45.76;101466.91;5055011;28;20060;-59
2022/05/29 10:10:13;;;;;;;3.78;1.15;;;;;;;20.84;45.48;101471.25;5055336;28;20056;-61
2022/05/29 10:12:40;;;;;;;4.15;1.02;;;;;;;20.87;45.95;101471.94;5055597;28;20033;-58
2022/05/29 10:15:13;;;;;;;4.05;1.10;;;;;;;20.87;46.19;101472.81;5054251;28;20100;-58
2022/05/29 10:17:41;;;;;;;4.45;1.20;;;;;;;20.86;45.96;101465.81;5055320;28;20518;-58
2022/05/29 10:20:35;;;;;;;4.78;1.08;;;;;;;20.88;46.04;101469.16;5055238;28;20037;-57
2022/05/29 10:23:06;;;;;;;4.95;1.05;;;;;;;20.90;46.11;101479.63;5054145;28;20374;-58
2022/05/29 10:25:35;;;;;;;5.07;1.10;;;;;;;20.88;46.27;101474.47;5055189;28;20051;-59
2022/05/29 10:28:03;;;;;;;5.70;1.20;;;;;;;20.89;46.06;101476.16;5054099;28;20031;-60
2022/05/29 10:30:41;;;;;;;6.35;1.20;;;;;;;20.89;46.45;101476.16;5054042;28;20037;-64
2022/05/29 10:33:10;;;;;;;3.22;0.95;;;;;;;20.89;46.58;101475.31;5054957;28;20079;-63
2022/05/29 10:35:38;;;;;;;5.53;1.63;;;;;;;20.87;46.55;101470.16;5053715;28;20029;-59
2022/05/29 10:38:13;;;;;;;4.82;0.98;;;;;;;20.87;47.13;101467.50;5054600;28;20040;-60
2022/05/29 10:40:41;;;;;;;3.70;0.82;;;;;;;20.88;47.00;101463.88;5054922;28;20025;-61
2022/05/29 10:43:06;;;;;;;5.05;0.98;;;;;;;20.85;47.20;101466.78;5053814;28;20052;-61
2022/05/29 10:45:41;;;;;;;5.25;1.10;;;;;;;20.82;46.32;101472.31;5054896;28;20053;-60
2022/05/29 10:48:46;;;;;;;5.22;1.15;;;;;;;20.78;45.37;101478.88;5054695;28;20447;-61
2022/05/29 10:51:17;;;;;;;3.50;0.90;;;;;;;20.75;46.07;101471.16;5053293;28;20473;-68
2022/05/29 10:54:00;;;;;;;2.80;0.90;;;;;;;20.74;46.85;101477.41;5054742;28;20056;-69
2022/05/29 10:56:34;;;;;;;5.78;1.00;;;;;;;20.74;47.05;101474.78;5053957;28;20362;-68
2022/05/29 10:59:14;;;;;;;6.35;1.10;;;;;;;20.74;47.18;101483.56;5054200;28;20108;-65
2022/05/29 11:05:26;;;;;;;4.90;1.83;;;;;;;20.75;47.23;101474.66;5053579;28;20435;-65
2022/05/29 11:08:07;;;;;;;4.85;1.30;;;;;;;20.76;47.35;101476.34;5054041;28;20035;-65
2022/05/29 11:10:53;;;;;;;7.03;1.20;;;;;;;20.76;47.60;101473.69;5053786;28;20432;-65
2022/05/29 11:13:32;;;;;;;5.55;1.90;;;;;;;20.70;47.88;101473.38;5054263;28;20062;-66
2022/05/29 11:16:24;;;;;;;5.32;1.13;;;;;;;20.68;47.65;101462.91;5053702;28;20051;-60
2022/05/29 11:19:14;;;;;;;5.75;1.65;;;;;;;20.69;47.80;101461.91;5053388;28;20083;-58
2022/05/29 11:22:10;;;;;;;3.08;1.23;;;;;;;20.71;47.59;101467.94;5054283;28;20041;-59
2022/05/29 11:24:53;;;;;;;5.28;1.23;;;;;;;20.71;47.70;101470.59;5053536;28;20400;-59
2022/05/29 11:27:41;;;;;;;4.22;1.15;;;;;;;20.72;47.62;101469.59;5054215;28;20029;-60
2022/05/29 11:30:23;;;;;;;2.28;0.95;;;;;;;20.72;47.31;101468.78;5053800;28;20039;-59
2022/05/29 11:33:18;;;;;;;3.20;1.15;;;;;;;20.72;47.29;101474.91;5053062;28;20100;-59
2022/05/29 11:36:37;;;;;;;4.57;1.23;;;;;;;20.73;47.43;101468.66;5053974;28;20028;-60
2022/05/29 11:39:31;;;;;;;5.47;1.10;;;;;;;20.69;47.58;101472.50;5030559;28;20034;-59
2022/05/29 11:42:13;;;;;;;4.25;1.20;;;;;;;20.69;46.85;101474.31;5052544;28;20086;-58
2022/05/29 11:44:54;;;;;;;7.20;1.30;;;;;;;20.68;47.57;101470.84;5053802;28;20025;-59
2022/05/29 11:53:24;;;;;;;5.80;1.08;;;;;;;20.71;47.74;101462.66;5053072;28;20501;-59
2022/05/29 11:55:54;;;;;;;5.28;1.02;;;;;;;20.71;47.24;101462.66;5053287;28;20079;-59
2022/05/29 11:58:30;;;;;;;4.70;1.15;;;;;;;20.72;47.46;101466.13;5053418;28;20024;-58
2022/05/29 12:01:04;;;;;;;4.00;1.02;;;;;;;20.74;47.09;101470.31;5052206;28;20499;-60
2022/05/29 12:03:32;;;;;;;5.30;1.02;;;;;;;20.75;47.08;101461.41;5053272;28;20385;-63
2022/05/29 12:06:05;;;;;;;3.47;0.95;;;;;;;20.76;47.19;101459.59;5052844;28;20085;-63
2022/05/29 12:08:52;;;;;;;4.90;1.10;;;;;;;20.77;47.48;101461.28;5052650;28;20033;-62
2022/05/29 12:11:42;;;;;;;4.13;1.08;;;;;;;20.77;47.28;101458.63;5055491;28;20102;-62
2022/05/29 12:14:28;;;;;;;3.38;0.90;;;;;;;20.77;47.23;101451.50;5054787;28;20028;-63
2022/05/29 12:16:59;;;;;;;4.30;0.93;;;;;;;20.83;47.52;101447.53;5054823;28;20048;-62
2022/05/29 12:19:30;;;;;;;6.70;1.08;;;;;;;20.90;47.65;101453.97;5053877;28;20151;-61
2022/05/29 12:22:01;;;;;;;3.97;0.95;;;;;;;20.94;47.69;101447.47;5052289;28;20049;-63
2022/05/29 12:24:37;;;;;;;5.93;0.80;;;;;;;20.97;47.13;101446.38;5052817;28;20044;-64
2022/05/29 12:27:09;;;;;;;5.07;1.23;;;;;;;20.98;47.05;101440.94;5052716;28;20028;-64